createdAt,value
2018-09-23T00:00:11.039Z,16.5
2018-09-23T00:01:00.294Z,16.4
2018-09-23T00:01:50.954Z,16.4
2018-09-23T00:02:41.002Z,16.4
2018-09-23T00:03:30.794Z,16.4
2018-09-23T00:04:21.112Z,16.4
2018-09-23T00:05:11.491Z,16.4
2018-09-23T00:06:00.976Z,16.4
2018-09-23T00:06:51.359Z,16.4
2018-09-23T00:07:41.360Z,16.4
2018-09-23T00:08:31.438Z,16.5
2018-09-23T00:09:21.226Z,16.5
2018-09-23T00:10:11.841Z,16.4
2018-09-23T00:11:01.356Z,16.5
2018-09-23T00:11:51.984Z,16.5
2018-09-23T00:12:41.760Z,16.6
2018-09-23T00:13:32.073Z,16.6
2018-09-23T00:14:21.873Z,16.6
2018-09-23T00:15:12.041Z,16.6
2018-09-23T00:16:01.986Z,16.6
2018-09-23T00:16:51.783Z,16.6
2018-09-23T00:17:42.112Z,16.6
2018-09-23T00:18:32.210Z,16.6
2018-09-23T00:19:22.278Z,16.7
2018-09-23T00:20:12.026Z,16.6
2018-09-23T00:21:02.426Z,16.6
2018-09-23T00:21:52.447Z,16.6
2018-09-23T00:22:42.541Z,16.7
2018-09-23T00:23:32.577Z,16.6
2018-09-23T00:24:22.372Z,16.7
2018-09-23T00:25:12.420Z,16.7
2018-09-23T00:26:02.761Z,16.7
2018-09-23T00:26:52.848Z,16.7
2018-09-23T00:27:43.185Z,16.8
2018-09-23T00:28:32.957Z,16.8
2018-09-23T00:29:22.743Z,16.7
2018-09-23T00:30:12.232Z,16.7
2018-09-23T00:31:03.202Z,16.8
2018-09-23T00:31:52.921Z,16.7
2018-09-23T00:32:43.249Z,16.7
2018-09-23T00:33:33.044Z,16.7
2018-09-23T00:34:22.825Z,16.7
2018-09-23T00:35:13.487Z,16.7
2018-09-23T00:36:03.849Z,16.7
2018-09-23T00:36:53.024Z,16.6
2018-09-23T00:55:58.523Z,16.5
2018-09-23T00:56:48.505Z,16.5
2018-09-23T00:57:38.845Z,16.4
2018-09-23T00:58:29.000Z,16.4
2018-09-23T00:59:19.013Z,16.4
2018-09-23T01:00:09.057Z,16.4
2018-09-23T01:00:59.394Z,16.4
2018-09-23T01:01:49.185Z,16.4
2018-09-23T01:02:39.237Z,16.4
2018-09-23T01:03:28.995Z,16.4
2018-09-23T01:04:19.336Z,16.3
2018-09-23T01:05:09.401Z,16.3
2018-09-23T01:05:59.670Z,16.3
2018-09-23T01:06:49.769Z,16.3
2018-09-23T01:07:39.310Z,16.3
2018-09-23T01:08:29.664Z,16.3
2018-09-23T01:09:19.712Z,16.3
2018-09-23T01:10:09.797Z,16.3
2018-09-23T01:11:00.152Z,16.2
2018-09-23T01:11:49.577Z,16.2
2018-09-23T01:12:40.099Z,16.2
2018-09-23T01:13:30.077Z,16.2
2018-09-23T01:14:19.814Z,16.1
2018-09-23T01:15:09.906Z,16.1
2018-09-23T01:15:59.642Z,16.1
2018-09-23T01:16:50.593Z,16.1
2018-09-23T01:17:40.351Z,16
2018-09-23T01:18:29.834Z,15.9
2018-09-23T01:19:20.481Z,15.9
2018-09-23T01:20:10.239Z,15.9
2018-09-23T01:21:00.579Z,16
2018-09-23T01:21:50.642Z,16
2018-09-23T01:22:40.446Z,15.9
2018-09-23T01:23:30.513Z,16
2018-09-23T01:24:20.593Z,15.9
2018-09-23T01:25:10.686Z,15.9
2018-09-23T01:26:00.986Z,15.9
2018-09-23T01:26:50.860Z,15.9
2018-09-23T01:27:41.107Z,15.9
2018-09-23T01:28:31.179Z,15.9
2018-09-23T01:29:21.222Z,15.9
2018-09-23T01:30:11.303Z,15.9
2018-09-23T01:31:01.078Z,15.9
2018-09-23T01:31:51.420Z,15.9
2018-09-23T01:32:41.509Z,15.9
2018-09-23T01:33:31.555Z,15.8
2018-09-23T01:34:21.613Z,15.8
2018-09-23T01:35:11.489Z,15.9
2018-09-23T01:36:01.760Z,15.9
2018-09-23T01:36:51.240Z,15.9
2018-09-23T01:37:41.628Z,15.9
2018-09-23T01:38:31.638Z,15.9
2018-09-23T01:39:21.715Z,15.9
2018-09-23T01:40:11.472Z,15.8
2018-09-23T01:41:01.828Z,15.8
2018-09-23T01:41:52.631Z,15.9
2018-09-23T01:42:42.535Z,15.9
2018-09-23T01:43:32.030Z,15.9
2018-09-23T01:44:22.364Z,15.9
2018-09-23T01:45:12.434Z,15.9
2018-09-23T01:46:02.495Z,15.9
2018-09-23T01:46:52.562Z,15.9
2018-09-23T01:47:42.361Z,15.9
2018-09-23T01:48:32.709Z,15.9
2018-09-23T01:49:22.777Z,15.9
2018-09-23T01:50:12.805Z,15.9
2018-09-23T01:51:02.294Z,15.9
2018-09-23T01:51:52.940Z,15.9
2018-09-23T01:52:43.029Z,15.9
2018-09-23T01:53:33.299Z,15.9
2018-09-23T01:54:23.131Z,15.9
2018-09-23T01:55:13.189Z,15.8
2018-09-23T01:56:02.674Z,15.8
2018-09-23T01:56:52.736Z,15.8
2018-09-23T01:57:43.676Z,15.7
2018-09-23T01:58:33.554Z,15.7
2018-09-23T01:59:22.939Z,15.6
2018-09-23T02:00:13.583Z,15.6
2018-09-23T02:01:03.349Z,15.6
2018-09-23T02:01:53.416Z,15.6
2018-09-23T02:02:43.459Z,15.6
2018-09-23T02:03:33.493Z,15.6
2018-09-23T02:04:23.353Z,15.6
2018-09-23T02:05:13.661Z,15.6
2018-09-23T02:06:03.751Z,15.6
2018-09-23T02:06:53.788Z,15.6
2018-09-23T02:07:44.388Z,15.6
2018-09-23T02:08:34.211Z,15.6
2018-09-23T02:09:23.703Z,15.6
2018-09-23T02:10:14.316Z,15.6
2018-09-23T02:11:04.388Z,15.6
2018-09-23T02:11:54.453Z,15.6
2018-09-23T02:12:44.575Z,15.5
2018-09-23T02:13:33.721Z,15.5
2018-09-23T02:14:24.080Z,15.4
2018-09-23T02:15:14.708Z,15.5
2018-09-23T02:16:04.770Z,15.5
2018-09-23T02:16:54.812Z,15.5
2018-09-23T02:17:44.877Z,15.5
2018-09-23T02:18:34.691Z,15.4
2018-09-23T02:19:24.788Z,15.4
2018-09-23T02:20:15.098Z,15.4
2018-09-23T02:21:05.028Z,15.4
2018-09-23T02:21:54.635Z,15.4
2018-09-23T02:22:44.985Z,15.4
2018-09-23T02:23:35.838Z,15.4
2018-09-23T02:24:24.820Z,15.4
2018-09-23T02:25:15.184Z,15.4
2018-09-23T02:26:05.563Z,15.3
2018-09-23T02:26:55.297Z,15.3
2018-09-23T02:27:45.372Z,15.3
2018-09-23T02:28:35.132Z,15.3
2018-09-23T02:29:25.499Z,15.3
2018-09-23T02:30:15.574Z,15.3
2018-09-23T02:31:05.911Z,15.3
2018-09-23T02:31:55.980Z,15.2
2018-09-23T02:32:46.040Z,15.1
2018-09-23T02:33:35.792Z,15.1
2018-09-23T02:34:26.437Z,15
2018-09-23T02:35:16.200Z,14.9
2018-09-23T02:36:06.294Z,14.9
2018-09-23T02:36:56.369Z,14.8
2018-09-23T02:37:46.130Z,14.8
2018-09-23T02:38:36.192Z,14.7
2018-09-23T02:39:26.554Z,14.7
2018-09-23T02:40:16.615Z,14.6
2018-09-23T02:41:06.101Z,14.6
2018-09-23T02:41:56.718Z,14.6
2018-09-23T02:42:46.547Z,14.6
2018-09-23T02:43:36.843Z,14.6
2018-09-23T02:44:26.903Z,14.6
2018-09-23T02:45:17.006Z,14.6
2018-09-23T02:46:07.033Z,14.6
2018-09-23T02:46:56.528Z,14.6
2018-09-23T02:47:47.160Z,14.6
2018-09-23T02:48:37.226Z,14.5
2018-09-23T02:49:27.291Z,14.5
2018-09-23T02:50:17.346Z,14.5
2018-09-23T02:51:07.412Z,14.4
2018-09-23T02:51:57.200Z,14.4
2018-09-23T02:52:46.960Z,14.4
2018-09-23T02:53:37.560Z,14.4
2018-09-23T02:54:27.741Z,14.4
2018-09-23T02:55:17.748Z,14.3
2018-09-23T02:56:07.493Z,14.3
2018-09-23T02:56:57.575Z,14.3
2018-09-23T02:57:47.635Z,14.3
2018-09-23T02:58:37.980Z,14.3
2018-09-23T02:59:27.802Z,14.3
2018-09-23T03:00:17.838Z,14.3
2018-09-23T03:01:08.172Z,14.3
2018-09-23T03:01:57.942Z,14.3
2018-09-23T03:02:48.002Z,14.3
2018-09-23T03:03:38.372Z,14.3
2018-09-23T03:04:28.148Z,14.3
2018-09-23T03:05:18.200Z,14.3
2018-09-23T03:06:08.000Z,14.3
2018-09-23T03:06:58.615Z,14.2
2018-09-23T03:07:48.672Z,14.2
2018-09-23T03:08:38.727Z,14.2
2018-09-23T03:09:28.804Z,14.2
2018-09-23T03:10:18.571Z,14.1
2018-09-23T03:11:08.644Z,14.1
2018-09-23T03:11:58.703Z,14.1
2018-09-23T03:12:49.067Z,14.1
2018-09-23T03:13:39.115Z,14.1
2018-09-23T03:14:28.861Z,14.1
2018-09-23T03:15:19.254Z,14.1
2018-09-23T03:16:09.027Z,14.1
2018-09-23T03:16:59.403Z,14.1
2018-09-23T03:17:48.877Z,14.1
2018-09-23T03:18:39.229Z,14.1
2018-09-23T03:19:29.561Z,14.1
2018-09-23T03:20:19.334Z,14.1
2018-09-23T03:21:10.009Z,14.1
2018-09-23T03:21:59.794Z,14.1
2018-09-23T03:22:49.241Z,14.1
2018-09-23T03:23:39.600Z,14.1
2018-09-23T03:24:30.197Z,14
2018-09-23T03:25:20.438Z,14
2018-09-23T03:26:10.071Z,13.9
2018-09-23T03:26:59.534Z,14
2018-09-23T03:27:50.199Z,14
2018-09-23T03:28:40.263Z,14
2018-09-23T03:29:30.346Z,14
2018-09-23T03:30:21.221Z,14
2018-09-23T03:31:10.635Z,13.9
2018-09-23T03:32:00.299Z,14
2018-09-23T03:32:50.594Z,14
2018-09-23T03:33:40.349Z,14.1
2018-09-23T03:34:30.404Z,14.1
2018-09-23T03:35:20.773Z,14.1
2018-09-23T03:36:10.491Z,14.1
2018-09-23T03:37:00.298Z,14.1
2018-09-23T03:37:50.653Z,14.1
2018-09-23T03:38:41.005Z,14.1
2018-09-23T03:39:30.806Z,14.1
2018-09-23T03:40:21.140Z,14.1
2018-09-23T03:41:10.940Z,14.1
2018-09-23T03:42:01.258Z,14.1
2018-09-23T03:42:51.325Z,14.1
2018-09-23T03:43:41.377Z,14.1
2018-09-23T03:44:31.155Z,14.1
2018-09-23T03:45:21.202Z,14.1
2018-09-23T03:46:10.717Z,14.1
2018-09-23T03:47:00.782Z,14.1
2018-09-23T03:47:51.421Z,14.1
2018-09-23T03:48:41.506Z,14.1
2018-09-23T03:49:31.824Z,14.1
2018-09-23T03:50:21.574Z,14
2018-09-23T03:51:11.945Z,14
2018-09-23T03:52:01.997Z,13.9
2018-09-23T03:52:52.069Z,13.9
2018-09-23T03:53:41.563Z,13.9
2018-09-23T03:54:32.195Z,13.8
2018-09-23T03:55:22.248Z,13.8
2018-09-23T03:56:12.317Z,13.8
2018-09-23T03:57:02.380Z,13.8
2018-09-23T03:57:51.719Z,13.8
2018-09-23T03:58:42.518Z,13.8
2018-09-23T03:59:32.295Z,13.8
2018-09-23T04:00:22.892Z,13.8
2018-09-23T04:01:12.937Z,13.7
2018-09-23T04:02:01.908Z,13.7
2018-09-23T04:02:52.562Z,13.6
2018-09-23T04:03:41.731Z,13.6
2018-09-23T04:04:32.386Z,13.6
2018-09-23T04:05:23.032Z,13.6
2018-09-23T04:06:12.490Z,13.6
2018-09-23T04:07:02.891Z,13.6
2018-09-23T04:07:53.204Z,13.6
2018-09-23T04:08:43.030Z,13.6
2018-09-23T04:09:33.072Z,13.5
2018-09-23T04:10:23.138Z,13.5
2018-09-23T04:11:13.435Z,13.5
2018-09-23T04:12:03.539Z,13.5
2018-09-23T04:12:53.299Z,13.5
2018-09-23T04:13:43.633Z,13.5
2018-09-23T04:14:33.131Z,13.4
2018-09-23T04:15:23.486Z,13.4
2018-09-23T04:16:13.543Z,13.4
2018-09-23T04:17:03.896Z,13.3
2018-09-23T04:17:53.670Z,13.3
2018-09-23T04:18:44.010Z,13.3
2018-09-23T04:19:34.087Z,13.3
2018-09-23T04:20:23.857Z,13.3
2018-09-23T04:21:14.178Z,13.3
2018-09-23T04:22:04.578Z,13.3
2018-09-23T04:22:54.328Z,13.3
2018-09-23T04:23:44.095Z,13.2
2018-09-23T04:24:34.170Z,13.2
2018-09-23T04:25:24.516Z,13.2
2018-09-23T04:26:14.584Z,13.2
2018-09-23T04:27:04.972Z,13.2
2018-09-23T04:27:54.688Z,13.2
2018-09-23T04:28:44.770Z,13.3
2018-09-23T04:29:34.832Z,13.2
2018-09-23T04:30:24.386Z,13.2
2018-09-23T04:31:14.993Z,13.2
2018-09-23T04:32:05.040Z,13.2
2018-09-23T04:32:55.143Z,13.1
2018-09-23T04:33:45.163Z,13.1
2018-09-23T04:34:35.190Z,13.1
2018-09-23T04:35:25.290Z,13.1
2018-09-23T04:36:15.326Z,13.1
2018-09-23T04:37:05.393Z,13.1
2018-09-23T04:37:54.882Z,13.1
2018-09-23T04:38:45.242Z,13.1
2018-09-23T04:39:34.999Z,13.1
2018-09-23T04:40:25.685Z,13.1
2018-09-23T04:41:15.419Z,13.1
2018-09-23T04:42:05.780Z,13.1
2018-09-23T04:42:55.544Z,13.1
2018-09-23T04:43:45.628Z,13.1
2018-09-23T04:44:35.657Z,13.1
2018-09-23T04:45:25.735Z,13.1
2018-09-23T04:46:16.091Z,13.2
2018-09-23T04:47:06.161Z,13.2
2018-09-23T04:47:56.204Z,13.1
2018-09-23T04:48:46.061Z,13.1
2018-09-23T04:49:36.049Z,13.1
2018-09-23T04:50:26.418Z,13.1
2018-09-23T04:51:16.459Z,13.2
2018-09-23T04:52:06.531Z,13.3
2018-09-23T04:52:57.445Z,13.3
2018-09-23T04:53:46.419Z,13.3
2018-09-23T04:54:36.427Z,13.3
2018-09-23T04:55:26.609Z,13.4
2018-09-23T04:56:16.892Z,13.4
2018-09-23T04:57:06.620Z,13.4
2018-09-23T04:57:56.375Z,13.5
2018-09-23T04:58:46.986Z,13.5
2018-09-23T04:59:37.110Z,13.6
2018-09-23T05:00:27.122Z,13.6
2018-09-23T05:01:17.222Z,13.7
2018-09-23T05:02:07.001Z,13.7
2018-09-23T05:02:57.334Z,13.7
2018-09-23T05:03:47.425Z,13.8
2018-09-23T05:04:37.159Z,13.8
2018-09-23T05:05:27.249Z,13.8
2018-09-23T05:06:17.289Z,13.9
2018-09-23T05:07:07.660Z,13.9
2018-09-23T05:24:53.801Z,14.4
2018-09-23T05:25:43.837Z,14.5
2018-09-23T05:26:33.897Z,14.5
2018-09-23T05:27:23.784Z,14.6
2018-09-23T05:28:14.295Z,14.6
2018-09-23T05:29:04.355Z,14.6
2018-09-23T05:29:54.669Z,14.6
2018-09-23T05:30:44.472Z,14.7
2018-09-23T05:31:34.558Z,14.7
2018-09-23T05:32:24.320Z,14.9
2018-09-23T05:33:14.655Z,15
2018-09-23T05:34:04.718Z,15.1
2018-09-23T05:34:54.787Z,15.2
2018-09-23T05:35:44.567Z,15.2
2018-09-23T05:36:34.902Z,15.1
2018-09-23T05:37:24.988Z,15.2
2018-09-23T05:38:14.757Z,15.3
2018-09-23T05:39:04.813Z,15.2
2018-09-23T05:39:55.167Z,15.3
2018-09-23T05:40:45.230Z,15.3
2018-09-23T05:41:35.010Z,15.4
2018-09-23T05:42:25.352Z,15.4
2018-09-23T05:43:15.441Z,15.4
2018-09-23T05:44:06.106Z,15.3
2018-09-23T05:44:54.998Z,15.3
2018-09-23T05:45:45.582Z,15.5
2018-09-23T05:46:35.373Z,15.6
2018-09-23T05:47:25.152Z,15.6
2018-09-23T05:48:15.775Z,15.7
2018-09-23T05:49:05.565Z,15.7
2018-09-23T05:49:55.922Z,15.8
2018-09-23T05:50:45.976Z,15.9
2018-09-23T05:51:36.306Z,15.8
2018-09-23T05:52:26.123Z,15.8
2018-09-23T05:53:16.947Z,15.9
2018-09-23T05:54:06.256Z,15.8
2018-09-23T05:54:56.036Z,15.9
2018-09-23T05:55:46.089Z,16
2018-09-23T05:56:36.088Z,16
2018-09-23T05:57:26.472Z,16.2
2018-09-23T05:58:16.277Z,16.4
2018-09-23T05:59:06.056Z,16.6
2018-09-23T05:59:56.391Z,16.4
2018-09-23T06:00:46.456Z,16.5
2018-09-23T06:01:36.802Z,16.5
2018-09-23T06:02:27.156Z,16.4
2018-09-23T06:03:17.529Z,16.6
2018-09-23T06:04:07.000Z,16.6
2018-09-23T06:04:56.755Z,16.6
2018-09-23T06:05:46.877Z,16.8
2018-09-23T06:08:17.291Z,16.9
2018-09-23T06:09:06.794Z,16.9
2018-09-23T06:09:57.127Z,17.2
2018-09-23T06:10:47.467Z,17.4
2018-09-23T06:11:37.096Z,17.6
2018-09-23T06:12:27.340Z,17.8
2018-09-23T06:13:17.677Z,18
2018-09-23T06:14:07.765Z,18
2018-09-23T06:14:57.510Z,17.9
2018-09-23T06:15:47.850Z,18.2
2018-09-23T06:16:37.632Z,17.9
2018-09-23T06:17:28.002Z,17.8
2018-09-23T06:18:17.936Z,17.8
2018-09-23T06:19:07.596Z,17.9
2018-09-23T06:19:57.888Z,17.9
2018-09-23T06:20:47.672Z,18.1
2018-09-23T06:21:38.290Z,18.1
2018-09-23T06:22:28.077Z,18.3
2018-09-23T06:23:18.434Z,18.3
2018-09-23T06:24:08.499Z,18.3
2018-09-23T06:24:58.286Z,18.5
2018-09-23T06:25:48.685Z,18.5
2018-09-23T06:26:38.403Z,18.3
2018-09-23T06:27:28.447Z,18.5
2018-09-23T06:28:18.793Z,18.5
2018-09-23T06:29:08.604Z,18.6
2018-09-23T06:29:58.924Z,18.4
2018-09-23T06:30:49.027Z,18.4
2018-09-23T06:32:29.424Z,18.8
2018-09-23T06:33:19.177Z,18.9
2018-09-23T06:34:09.833Z,18.9
2018-09-23T06:34:59.311Z,18.9
2018-09-23T06:35:49.371Z,19
2018-09-23T06:36:39.496Z,18.9
2018-09-23T06:37:29.534Z,18.8
2018-09-23T06:38:19.281Z,18.9
2018-09-23T06:39:09.621Z,19.2
2018-09-23T06:39:59.423Z,19.5
2018-09-23T06:40:49.757Z,19.4
2018-09-23T06:41:39.533Z,19.6
2018-09-23T06:42:29.695Z,19.8
2018-09-23T06:43:19.713Z,19.9
2018-09-23T06:44:10.044Z,20.1
2018-09-23T06:44:59.541Z,19.9
2018-09-23T06:45:50.560Z,19.8
2018-09-23T06:46:40.193Z,20
2018-09-23T06:47:30.491Z,19.9
2018-09-23T06:48:20.366Z,19.9
2018-09-23T06:49:10.403Z,20.1
2018-09-23T06:50:00.435Z,19.8
2018-09-23T06:50:50.225Z,19.9
2018-09-23T06:51:40.865Z,19.9
2018-09-23T06:52:30.398Z,20.1
2018-09-23T06:53:20.697Z,20.3
2018-09-23T06:54:10.803Z,20.1
2018-09-23T06:55:00.825Z,20.3
2018-09-23T06:55:50.895Z,20.6
2018-09-23T06:56:41.011Z,20.4
2018-09-23T06:57:30.476Z,20.8
2018-09-23T06:58:21.083Z,20.6
2018-09-23T06:59:10.570Z,20.5
2018-09-23T07:00:00.971Z,20.6
2018-09-23T07:00:50.729Z,20.4
2018-09-23T07:01:41.372Z,20.6
2018-09-23T07:02:31.364Z,20.8
2018-09-23T07:03:21.437Z,21
2018-09-23T07:05:02.487Z,21.1
2018-09-23T07:05:51.356Z,20.9
2018-09-23T07:06:41.409Z,20.9
2018-09-23T07:07:31.780Z,21.2
2018-09-23T07:08:21.837Z,21.1
2018-09-23T07:09:11.620Z,21
2018-09-23T07:10:01.951Z,20.6
2018-09-23T07:10:52.016Z,20.2
2018-09-23T07:11:41.802Z,20
2018-09-23T07:12:31.864Z,20.6
2018-09-23T07:13:21.943Z,20.7
2018-09-23T07:14:12.002Z,20.9
2018-09-23T07:15:01.848Z,21.1
2018-09-23T07:15:51.637Z,20.8
2018-09-23T07:16:42.460Z,20.8
2018-09-23T07:17:32.553Z,20.7
2018-09-23T07:18:22.023Z,20.8
2018-09-23T07:19:12.655Z,21.1
2018-09-23T07:20:02.187Z,21.5
2018-09-23T07:20:52.777Z,21.7
2018-09-23T07:21:42.925Z,22.1
2018-09-23T07:22:32.645Z,21.9
2018-09-23T07:23:22.452Z,21.3
2018-09-23T07:24:14.292Z,21.3
2018-09-23T07:25:02.560Z,21.4
2018-09-23T07:25:52.908Z,21.7
2018-09-23T07:26:43.243Z,22.1
2018-09-23T07:27:33.033Z,22.4
2018-09-23T07:28:23.355Z,22.6
2018-09-23T07:29:13.659Z,22.6
2018-09-23T07:30:03.801Z,22.5
2018-09-23T07:30:53.557Z,22.4
2018-09-23T07:31:43.320Z,22.3
2018-09-23T07:32:33.694Z,22.3
2018-09-23T07:33:23.312Z,21.8
2018-09-23T07:34:13.834Z,21.5
2018-09-23T07:35:03.584Z,22
2018-09-23T07:35:53.912Z,22
2018-09-23T07:36:44.518Z,21.9
2018-09-23T07:37:32.987Z,21.9
2018-09-23T07:38:24.214Z,21.8
2018-09-23T07:39:14.228Z,21.8
2018-09-23T07:40:05.320Z,21.9
2018-09-23T07:40:54.316Z,22.6
2018-09-23T07:41:44.361Z,22.7
2018-09-23T07:42:34.421Z,22.6
2018-09-23T07:43:24.251Z,22.9
2018-09-23T07:44:14.276Z,23.1
2018-09-23T07:45:04.350Z,23.4
2018-09-23T07:45:54.692Z,23.6
2018-09-23T07:46:44.470Z,23.8
2018-09-23T07:47:35.056Z,23.8
2018-09-23T07:48:24.896Z,23.8
2018-09-23T07:49:14.466Z,23.7
2018-09-23T07:50:04.823Z,23.7
2018-09-23T07:50:54.770Z,23.7
2018-09-23T07:51:44.637Z,23.8
2018-09-23T07:52:34.694Z,23.6
2018-09-23T07:53:25.278Z,23.6
2018-09-23T07:54:15.043Z,23.6
2018-09-23T07:55:05.133Z,23.4
2018-09-23T07:55:54.863Z,23.6
2018-09-23T07:56:45.525Z,23.8
2018-09-23T07:57:35.290Z,23.7
2018-09-23T07:58:25.348Z,23.4
2018-09-23T07:59:15.468Z,23.6
2018-09-23T08:00:05.188Z,24
2018-09-23T08:00:55.542Z,24
2018-09-23T08:01:45.304Z,24
2018-09-23T08:02:35.950Z,23.5
2018-09-23T08:03:26.153Z,23.7
2018-09-23T08:04:15.510Z,23.9
2018-09-23T08:05:05.845Z,24.3
2018-09-23T08:05:56.501Z,24.8
2018-09-23T08:06:45.982Z,24.4
2018-09-23T08:07:36.057Z,23.9
2018-09-23T08:08:26.392Z,23.7
2018-09-23T08:09:16.468Z,23.8
2018-09-23T08:10:06.550Z,23.3
2018-09-23T08:10:56.855Z,22.5
2018-09-23T08:11:46.364Z,22.6
2018-09-23T08:12:37.999Z,23.1
2018-09-23T08:13:28.068Z,23.6
2018-09-23T08:14:19.685Z,23.4
2018-09-23T08:15:07.703Z,23.3
2018-09-23T08:15:56.688Z,23.6
2018-09-23T08:16:47.057Z,23.8
2018-09-23T08:17:37.073Z,23.8
2018-09-23T08:18:27.175Z,24.1
2018-09-23T08:19:16.947Z,24.4
2018-09-23T08:20:08.150Z,24.6
2018-09-23T08:20:58.034Z,24.8
2018-09-23T08:21:47.127Z,25.3
2018-09-23T08:22:37.204Z,25.4
2018-09-23T08:23:27.554Z,25.6
2018-09-23T08:24:17.627Z,25.1
2018-09-23T08:25:07.950Z,25.1
2018-09-23T08:25:57.774Z,25.2
2018-09-23T08:26:47.520Z,25.2
2018-09-23T08:27:37.569Z,25.1
2018-09-23T08:28:27.926Z,25.3
2018-09-23T08:29:17.554Z,25.5
2018-09-23T08:30:08.041Z,25.6
2018-09-23T08:30:57.825Z,25.6
2018-09-23T08:31:48.211Z,25.8
2018-09-23T08:32:37.954Z,25.6
2018-09-23T08:33:28.076Z,25.7
2018-09-23T08:34:18.089Z,25.1
2018-09-23T08:35:08.138Z,25.5
2018-09-23T08:35:58.491Z,24.9
2018-09-23T08:36:48.001Z,24.8
2018-09-23T08:37:38.343Z,24.6
2018-09-23T08:38:28.724Z,25.1
2018-09-23T08:39:18.770Z,25.6
2018-09-23T08:40:09.340Z,25.9
2018-09-23T08:40:58.871Z,25.9
2018-09-23T08:41:48.937Z,25.9
2018-09-23T08:42:38.717Z,26.1
2018-09-23T08:43:29.137Z,26.4
2018-09-23T08:44:19.152Z,26.4
2018-09-23T08:45:09.190Z,26.4
2018-09-23T08:45:58.712Z,26.6
2018-09-23T08:46:49.387Z,26
2018-09-23T08:47:39.499Z,25.9
2018-09-23T08:48:30.027Z,25.8
2018-09-23T08:49:19.550Z,25.8
2018-09-23T08:50:09.643Z,25.9
2018-09-23T08:50:59.658Z,26.1
2018-09-23T08:51:49.874Z,26.3
2018-09-23T08:52:40.054Z,26.3
2018-09-23T08:53:29.552Z,26.1
2018-09-23T08:54:20.146Z,26.4
2018-09-23T08:55:09.664Z,26.2
2018-09-23T08:55:59.730Z,26
2018-09-23T08:56:49.869Z,25.6
2018-09-23T08:57:40.050Z,25.3
2018-09-23T08:58:30.272Z,25.9
2018-09-23T08:59:20.538Z,25.8
2018-09-23T09:00:10.334Z,25.1
2018-09-23T09:01:00.386Z,25
2018-09-23T09:01:50.464Z,25.4
2018-09-23T09:02:40.597Z,25.9
2018-09-23T09:03:30.151Z,26.2
2018-09-23T09:04:20.369Z,26.3
2018-09-23T09:05:10.459Z,26
2018-09-23T09:06:01.067Z,25.4
2018-09-23T09:06:50.860Z,25.3
2018-09-23T09:07:41.169Z,25.6
2018-09-23T09:08:30.978Z,25.6
2018-09-23T09:09:21.094Z,25.6
2018-09-23T09:10:10.821Z,25.6
2018-09-23T09:11:00.934Z,25.9
2018-09-23T09:11:51.818Z,26.1
2018-09-23T09:12:40.754Z,26.6
2018-09-23T09:13:31.093Z,27
2018-09-23T09:14:20.917Z,27.2
2018-09-23T09:15:11.220Z,26.8
2018-09-23T09:16:01.311Z,26.2
2018-09-23T09:16:51.325Z,26.1
2018-09-23T09:17:41.661Z,26.3
2018-09-23T09:18:32.187Z,26.6
2018-09-23T09:19:21.522Z,26.9
2018-09-23T09:20:11.594Z,27.3
2018-09-23T09:21:01.924Z,27.4
2018-09-23T09:21:51.991Z,27.3
2018-09-23T09:22:42.056Z,27.8
2018-09-23T09:39:38.832Z,29.1
2018-09-23T09:40:28.599Z,29.2
2018-09-23T09:41:18.257Z,29.6
2018-09-23T09:42:08.325Z,29.6
2018-09-23T09:42:58.617Z,29.7
2018-09-23T09:43:48.706Z,28.9
2018-09-23T09:44:38.770Z,28.9
2018-09-23T09:45:28.277Z,28.8
2018-09-23T09:46:18.909Z,28.6
2018-09-23T09:47:08.420Z,28.9
2018-09-23T09:47:58.729Z,29.2
2018-09-23T09:48:49.180Z,29.3
2018-09-23T09:49:39.159Z,29.5
2018-09-23T09:50:28.934Z,29.5
2018-09-23T09:51:19.061Z,29.3
2018-09-23T09:52:09.114Z,29.1
2018-09-23T09:52:58.908Z,28.6
2018-09-23T09:53:49.219Z,28.5
2018-09-23T09:54:39.557Z,28.6
2018-09-23T09:55:30.324Z,28.6
2018-09-23T09:56:19.724Z,29.2
2018-09-23T09:57:09.749Z,29.4
2018-09-23T09:57:59.526Z,29.1
2018-09-23T09:58:49.316Z,29.2
2018-09-23T09:59:39.924Z,29.8
2018-09-23T10:00:29.435Z,30.1
2018-09-23T10:01:20.088Z,30.2
2018-09-23T10:02:09.838Z,30
2018-09-23T10:03:00.446Z,29.7
2018-09-23T10:03:50.532Z,30
2018-09-23T10:04:40.327Z,30.1
2018-09-23T10:05:30.398Z,29.8
2018-09-23T10:06:20.155Z,29.7
2018-09-23T10:07:09.670Z,29.7
2018-09-23T10:08:00.037Z,28.5
2018-09-23T10:08:50.151Z,28.3
2018-09-23T10:09:40.769Z,27.8
2018-09-23T10:10:30.505Z,28.5
2018-09-23T10:11:20.342Z,28.1
2018-09-23T10:12:10.700Z,28.3
2018-09-23T10:13:00.968Z,28.4
2018-09-23T10:13:50.818Z,29.1
2018-09-23T10:14:40.810Z,29.6
2018-09-23T10:15:30.012Z,29.9
2018-09-23T10:16:21.209Z,29.9
2018-09-23T10:17:11.267Z,30.4
2018-09-23T10:18:01.075Z,30.8
2018-09-23T10:18:51.121Z,30.4
2018-09-23T10:19:41.585Z,30.8
2018-09-23T10:20:31.553Z,30.9
2018-09-23T10:21:21.605Z,30.9
2018-09-23T10:22:11.688Z,30.9
2018-09-23T10:23:02.182Z,31.3
2018-09-23T10:23:51.818Z,31.4
2018-09-23T10:24:41.874Z,31.4
2018-09-23T10:25:31.926Z,31.6
2018-09-23T10:26:21.701Z,31.4
2018-09-23T10:27:11.750Z,31.4
2018-09-23T10:28:01.832Z,31.1
2018-09-23T10:28:51.920Z,30.9
2018-09-23T10:29:42.005Z,31.2
2018-09-23T10:30:32.562Z,31.3
2018-09-23T10:31:22.888Z,31
2018-09-23T10:32:12.428Z,30.9
2018-09-23T10:33:02.266Z,30.7
2018-09-23T10:33:52.571Z,30.6
2018-09-23T10:34:42.173Z,30.1
2018-09-23T10:35:32.141Z,30.6
2018-09-23T10:36:22.789Z,30.9
2018-09-23T10:37:12.838Z,31.1
2018-09-23T10:38:02.616Z,31.4
2018-09-23T10:38:52.106Z,31.7
2018-09-23T10:39:42.773Z,31.9
2018-09-23T10:40:33.083Z,31.9
2018-09-23T10:41:23.241Z,31.8
2018-09-23T10:42:12.673Z,31.3
2018-09-23T10:43:03.269Z,31.1
2018-09-23T10:43:53.323Z,30.7
2018-09-23T10:44:43.393Z,29.9
2018-09-23T10:45:33.459Z,29.9
2018-09-23T10:46:23.238Z,30.3
2018-09-23T10:47:13.716Z,31.1
2018-09-23T10:48:03.523Z,31.4
2018-09-23T10:48:53.489Z,31.7
2018-09-23T10:49:43.821Z,31.8
2018-09-23T10:50:33.896Z,31.7
2018-09-23T10:51:23.711Z,31.9
2018-09-23T10:52:13.982Z,32
2018-09-23T10:53:03.994Z,32.2
2018-09-23T10:53:54.091Z,31.9
2018-09-23T10:54:43.873Z,32
2018-09-23T10:55:33.844Z,32.1
2018-09-23T10:56:24.289Z,32
2018-09-23T10:57:14.372Z,32
2018-09-23T10:58:04.455Z,31.9
2018-09-23T10:58:54.229Z,32
2018-09-23T10:59:44.562Z,32
2018-09-23T11:00:34.612Z,32.2
2018-09-23T11:01:24.369Z,32.2
2018-09-23T11:02:14.182Z,32.4
2018-09-23T11:03:04.764Z,32.3
2018-09-23T11:03:54.866Z,32.4
2018-09-23T11:04:43.891Z,32.4
2018-09-23T11:05:34.168Z,32.6
2018-09-23T11:06:24.796Z,32.8
2018-09-23T11:07:15.221Z,32.8
2018-09-23T11:08:04.609Z,32.9
2018-09-23T11:08:54.985Z,32.9
2018-09-23T11:09:45.052Z,32.7
2018-09-23T11:10:35.107Z,31.9
2018-09-23T11:11:25.296Z,32.1
2018-09-23T11:12:15.501Z,31.8
2018-09-23T11:13:05.554Z,31.3
2018-09-23T11:13:55.624Z,31.6
2018-09-23T11:14:45.116Z,31.2
2018-09-23T11:15:35.174Z,31.7
2018-09-23T11:16:25.540Z,32.4
2018-09-23T11:17:15.882Z,32.6
2018-09-23T11:18:05.685Z,32.7
2018-09-23T11:18:55.713Z,32.8
2018-09-23T11:19:46.074Z,32.9
2018-09-23T11:20:36.113Z,33
2018-09-23T11:21:25.642Z,33.1
2018-09-23T11:22:16.254Z,33.3
2018-09-23T11:23:06.153Z,33.2
2018-09-23T11:23:56.439Z,33.1
2018-09-23T11:24:47.111Z,32.7
2018-09-23T11:25:35.663Z,32.7
2018-09-23T11:26:26.905Z,32.9
2018-09-23T11:27:16.364Z,32.5
2018-09-23T11:28:06.157Z,31.9
2018-09-23T11:28:56.777Z,31.9
2018-09-23T11:29:46.539Z,31.8
2018-09-23T11:30:37.331Z,31.9
2018-09-23T11:31:26.960Z,32.4
2018-09-23T11:32:16.467Z,32.7
2018-09-23T11:33:07.131Z,32.8
2018-09-23T11:33:57.194Z,32.6
2018-09-23T11:34:47.209Z,32.5
2018-09-23T11:35:36.998Z,32.2
2018-09-23T11:36:27.370Z,32.1
2018-09-23T11:37:16.857Z,31.5
2018-09-23T11:38:07.219Z,30.8
2018-09-23T11:38:57.289Z,30.6
2018-09-23T11:39:47.727Z,30.9
2018-09-23T11:40:37.674Z,31.1
2018-09-23T11:41:27.556Z,31.6
2018-09-23T11:42:17.786Z,31.7
2018-09-23T11:43:07.603Z,32.6
2018-09-23T11:43:57.659Z,33.1
2018-09-23T11:44:47.399Z,33.2
2018-09-23T11:45:37.778Z,33.3
2018-09-23T11:46:27.837Z,33
2018-09-23T11:47:17.634Z,32.9
2018-09-23T11:48:07.951Z,33.1
2018-09-23T11:48:58.337Z,33.3
2018-09-23T11:49:48.096Z,33.5
2018-09-23T11:50:38.581Z,33.4
2018-09-23T11:51:28.596Z,33.2
2018-09-23T11:52:18.363Z,33.3
2018-09-23T11:53:08.414Z,33.3
2018-09-23T11:53:58.670Z,33.1
2018-09-23T11:54:48.738Z,33.1
2018-09-23T11:55:38.834Z,33
2018-09-23T11:56:28.601Z,32.8
2018-09-23T11:57:18.923Z,31.7
2018-09-23T11:58:09.000Z,31.4
2018-09-23T11:58:59.599Z,31.7
2018-09-23T11:59:49.157Z,32.1
2018-09-23T12:00:38.969Z,32.4
2018-09-23T12:01:29.317Z,32.6
2018-09-23T12:02:20.010Z,33.3
2018-09-23T12:03:09.042Z,33.8